sensor_id;sensor_type;location;lat;lon;timestamp;P1;durP1;ratioP1;P2;durP2;ratioP2
71558;SDS011;59382;43.852;25.952;2023-12-20T00:02:09;8.57;;;4.22;;
71558;SDS011;59382;43.852;25.952;2023-12-20T00:04:34;9.68;;;4.53;;
71558;SDS011;59382;43.852;25.952;2023-12-20T00:07:01;10.38;;;4.35;;
71558;SDS011;59382;43.852;25.952;2023-12-20T00:09:26;9.73;;;4.95;;
71558;SDS011;59382;43.852;25.952;2023-12-20T00:11:52;7.38;;;4.25;;
71558;SDS011;59382;43.852;25.952;2023-12-20T00:14:17;8.13;;;4.45;;
71558;SDS011;59382;43.852;25.952;2023-12-20T00:16:43;7.50;;;3.67;;
71558;SDS011;59382;43.852;25.952;2023-12-20T00:19:08;9.63;;;4.70;;
71558;SDS011;59382;43.852;25.952;2023-12-20T00:21:34;7.93;;;4.45;;
71558;SDS011;59382;43.852;25.952;2023-12-20T00:23:59;7.90;;;4.18;;
71558;SDS011;59382;43.852;25.952;2023-12-20T00:26:25;6.28;;;4.25;;
71558;SDS011;59382;43.852;25.952;2023-12-20T00:28:53;7.18;;;4.50;;
71558;SDS011;59382;43.852;25.952;2023-12-20T00:31:18;7.25;;;3.85;;
71558;SDS011;59382;43.852;25.952;2023-12-20T00:33:44;6.45;;;4.25;;
71558;SDS011;59382;43.852;25.952;2023-12-20T00:36:11;5.53;;;3.03;;
71558;SDS011;59382;43.852;25.952;2023-12-20T00:38:36;6.13;;;3.47;;
71558;SDS011;59382;43.852;25.952;2023-12-20T00:41:02;4.60;;;3.38;;
71558;SDS011;59382;43.852;25.952;2023-12-20T00:43:27;5.30;;;3.85;;
71558;SDS011;59382;43.852;25.952;2023-12-20T00:45:53;8.65;;;4.88;;
71558;SDS011;59382;43.852;25.952;2023-12-20T00:48:19;7.30;;;4.60;;
71558;SDS011;59382;43.852;25.952;2023-12-20T00:50:44;7.10;;;3.88;;
71558;SDS011;59382;43.852;25.952;2023-12-20T00:53:10;6.70;;;3.95;;
71558;SDS011;59382;43.852;25.952;2023-12-20T00:55:35;8.00;;;4.13;;
71558;SDS011;59382;43.852;25.952;2023-12-20T00:58:00;6.65;;;3.95;;
71558;SDS011;59382;43.852;25.952;2023-12-20T01:00:26;5.07;;;3.58;;
71558;SDS011;59382;43.852;25.952;2023-12-20T01:02:52;8.68;;;3.53;;
71558;SDS011;59382;43.852;25.952;2023-12-20T01:05:18;4.65;;;2.80;;
71558;SDS011;59382;43.852;25.952;2023-12-20T01:07:44;5.13;;;2.80;;
71558;SDS011;59382;43.852;25.952;2023-12-20T01:10:10;3.83;;;2.78;;
71558;SDS011;59382;43.852;25.952;2023-12-20T01:12:38;2.63;;;2.40;;
71558;SDS011;59382;43.852;25.952;2023-12-20T01:15:04;3.80;;;2.53;;
71558;SDS011;59382;43.852;25.952;2023-12-20T01:17:30;5.22;;;2.70;;
71558;SDS011;59382;43.852;25.952;2023-12-20T01:19:55;6.20;;;2.85;;
71558;SDS011;59382;43.852;25.952;2023-12-20T01:22:21;4.70;;;2.78;;
71558;SDS011;59382;43.852;25.952;2023-12-20T01:24:46;4.43;;;2.97;;
71558;SDS011;59382;43.852;25.952;2023-12-20T01:27:12;3.17;;;2.70;;
71558;SDS011;59382;43.852;25.952;2023-12-20T01:29:37;5.25;;;2.90;;
71558;SDS011;59382;43.852;25.952;2023-12-20T01:32:03;2.53;;;2.33;;
71558;SDS011;59382;43.852;25.952;2023-12-20T01:34:29;3.42;;;2.80;;
71558;SDS011;59382;43.852;25.952;2023-12-20T01:36:55;6.53;;;3.33;;
71558;SDS011;59382;43.852;25.952;2023-12-20T01:39:20;3.40;;;2.40;;
71558;SDS011;59382;43.852;25.952;2023-12-20T01:41:46;3.10;;;2.72;;
71558;SDS011;59382;43.852;25.952;2023-12-20T01:44:11;4.57;;;2.90;;
71558;SDS011;59382;43.852;25.952;2023-12-20T01:46:37;5.68;;;2.65;;
71558;SDS011;59382;43.852;25.952;2023-12-20T01:49:02;2.95;;;2.65;;
71558;SDS011;59382;43.852;25.952;2023-12-20T01:51:28;6.47;;;2.90;;
71558;SDS011;59382;43.852;25.952;2023-12-20T01:53:55;3.75;;;2.42;;
71558;SDS011;59382;43.852;25.952;2023-12-20T01:56:23;6.00;;;3.10;;
71558;SDS011;59382;43.852;25.952;2023-12-20T01:58:49;3.13;;;2.83;;
71558;SDS011;59382;43.852;25.952;2023-12-20T02:01:14;4.03;;;3.17;;
71558;SDS011;59382;43.852;25.952;2023-12-20T02:03:41;4.22;;;3.20;;
71558;SDS011;59382;43.852;25.952;2023-12-20T02:06:07;5.25;;;3.13;;
71558;SDS011;59382;43.852;25.952;2023-12-20T02:08:34;6.65;;;4.15;;
71558;SDS011;59382;43.852;25.952;2023-12-20T02:10:59;6.43;;;4.13;;
71558;SDS011;59382;43.852;25.952;2023-12-20T02:13:25;6.95;;;4.65;;
71558;SDS011;59382;43.852;25.952;2023-12-20T02:15:52;5.50;;;3.85;;
71558;SDS011;59382;43.852;25.952;2023-12-20T02:18:17;5.75;;;4.18;;
71558;SDS011;59382;43.852;25.952;2023-12-20T02:20:43;4.85;;;3.42;;
71558;SDS011;59382;43.852;25.952;2023-12-20T02:23:09;6.88;;;4.00;;
71558;SDS011;59382;43.852;25.952;2023-12-20T02:25:34;6.90;;;4.22;;
71558;SDS011;59382;43.852;25.952;2023-12-20T02:28:00;5.60;;;3.67;;
71558;SDS011;59382;43.852;25.952;2023-12-20T02:30:26;8.65;;;3.85;;
71558;SDS011;59382;43.852;25.952;2023-12-20T02:32:52;4.88;;;3.47;;
71558;SDS011;59382;43.852;25.952;2023-12-20T02:35:18;5.20;;;3.70;;
71558;SDS011;59382;43.852;25.952;2023-12-20T02:37:44;6.10;;;3.72;;
71558;SDS011;59382;43.852;25.952;2023-12-20T02:40:09;10.60;;;4.63;;
71558;SDS011;59382;43.852;25.952;2023-12-20T02:42:35;10.07;;;4.57;;
71558;SDS011;59382;43.852;25.952;2023-12-20T02:45:01;6.28;;;4.55;;
71558;SDS011;59382;43.852;25.952;2023-12-20T02:47:26;6.90;;;3.90;;
71558;SDS011;59382;43.852;25.952;2023-12-20T02:49:52;7.55;;;4.57;;
71558;SDS011;59382;43.852;25.952;2023-12-20T02:52:18;6.10;;;4.10;;
71558;SDS011;59382;43.852;25.952;2023-12-20T02:54:43;9.80;;;4.40;;
71558;SDS011;59382;43.852;25.952;2023-12-20T02:57:09;6.45;;;3.92;;
71558;SDS011;59382;43.852;25.952;2023-12-20T02:59:34;7.50;;;3.33;;
71558;SDS011;59382;43.852;25.952;2023-12-20T03:02:00;4.88;;;3.45;;
71558;SDS011;59382;43.852;25.952;2023-12-20T03:04:25;6.22;;;3.28;;
71558;SDS011;59382;43.852;25.952;2023-12-20T03:06:51;3.97;;;3.17;;
71558;SDS011;59382;43.852;25.952;2023-12-20T03:09:16;4.18;;;2.65;;
71558;SDS011;59382;43.852;25.952;2023-12-20T03:11:42;3.85;;;2.70;;
71558;SDS011;59382;43.852;25.952;2023-12-20T03:14:07;2.63;;;2.42;;
71558;SDS011;59382;43.852;25.952;2023-12-20T03:16:33;3.15;;;2.65;;
71558;SDS011;59382;43.852;25.952;2023-12-20T03:18:58;2.78;;;2.30;;
71558;SDS011;59382;43.852;25.952;2023-12-20T03:21:24;3.58;;;2.50;;
71558;SDS011;59382;43.852;25.952;2023-12-20T03:23:49;2.88;;;2.63;;
71558;SDS011;59382;43.852;25.952;2023-12-20T03:26:15;3.97;;;2.67;;
71558;SDS011;59382;43.852;25.952;2023-12-20T03:28:40;4.07;;;3.00;;
71558;SDS011;59382;43.852;25.952;2023-12-20T03:31:06;4.50;;;3.40;;
71558;SDS011;59382;43.852;25.952;2023-12-20T03:33:31;5.25;;;3.15;;
71558;SDS011;59382;43.852;25.952;2023-12-20T03:35:57;4.05;;;3.13;;
71558;SDS011;59382;43.852;25.952;2023-12-20T03:38:22;4.97;;;3.47;;
71558;SDS011;59382;43.852;25.952;2023-12-20T03:40:51;3.97;;;2.95;;
71558;SDS011;59382;43.852;25.952;2023-12-20T03:43:16;4.13;;;2.88;;
71558;SDS011;59382;43.852;25.952;2023-12-20T03:45:42;5.90;;;3.13;;
71558;SDS011;59382;43.852;25.952;2023-12-20T03:48:08;4.72;;;2.92;;
71558;SDS011;59382;43.852;25.952;2023-12-20T03:50:34;3.50;;;3.17;;
71558;SDS011;59382;43.852;25.952;2023-12-20T03:53:00;9.35;;;3.08;;
71558;SDS011;59382;43.852;25.952;2023-12-20T03:55:26;5.05;;;3.00;;
71558;SDS011;59382;43.852;25.952;2023-12-20T03:57:51;5.20;;;3.47;;
71558;SDS011;59382;43.852;25.952;2023-12-20T04:00:17;4.50;;;3.15;;
71558;SDS011;59382;43.852;25.952;2023-12-20T04:02:42;6.15;;;3.58;;
71558;SDS011;59382;43.852;25.952;2023-12-20T04:05:08;5.00;;;3.92;;
71558;SDS011;59382;43.852;25.952;2023-12-20T04:07:37;8.25;;;3.97;;
71558;SDS011;59382;43.852;25.952;2023-12-20T04:10:03;7.82;;;4.60;;
71558;SDS011;59382;43.852;25.952;2023-12-20T04:12:29;6.22;;;4.05;;
71558;SDS011;59382;43.852;25.952;2023-12-20T04:14:56;5.07;;;4.07;;
71558;SDS011;59382;43.852;25.952;2023-12-20T04:17:22;5.15;;;3.80;;
71558;SDS011;59382;43.852;25.952;2023-12-20T04:19:50;11.10;;;4.10;;
71558;SDS011;59382;43.852;25.952;2023-12-20T04:22:19;7.35;;;4.65;;
71558;SDS011;59382;43.852;25.952;2023-12-20T04:24:45;4.93;;;3.33;;
71558;SDS011;59382;43.852;25.952;2023-12-20T04:27:10;10.55;;;4.75;;
71558;SDS011;59382;43.852;25.952;2023-12-20T04:29:36;4.80;;;4.28;;
71558;SDS011;59382;43.852;25.952;2023-12-20T04:32:02;5.00;;;3.92;;
71558;SDS011;59382;43.852;25.952;2023-12-20T04:34:27;8.93;;;5.10;;
71558;SDS011;59382;43.852;25.952;2023-12-20T04:36:53;6.10;;;4.35;;
71558;SDS011;59382;43.852;25.952;2023-12-20T04:39:19;8.40;;;4.88;;
71558;SDS011;59382;43.852;25.952;2023-12-20T04:41:45;4.63;;;3.72;;
71558;SDS011;59382;43.852;25.952;2023-12-20T04:44:12;3.45;;;3.03;;
71558;SDS011;59382;43.852;25.952;2023-12-20T04:46:38;4.53;;;3.53;;
71558;SDS011;59382;43.852;25.952;2023-12-20T04:49:04;8.38;;;3.08;;
71558;SDS011;59382;43.852;25.952;2023-12-20T04:51:29;5.72;;;3.42;;
71558;SDS011;59382;43.852;25.952;2023-12-20T04:53:55;4.35;;;3.13;;
71558;SDS011;59382;43.852;25.952;2023-12-20T04:56:20;5.68;;;2.88;;
71558;SDS011;59382;43.852;25.952;2023-12-20T04:58:46;6.05;;;4.22;;
71558;SDS011;59382;43.852;25.952;2023-12-20T05:01:12;10.98;;;5.10;;
71558;SDS011;59382;43.852;25.952;2023-12-20T05:03:38;10.13;;;4.88;;
71558;SDS011;59382;43.852;25.952;2023-12-20T05:06:03;7.28;;;4.60;;
71558;SDS011;59382;43.852;25.952;2023-12-20T05:08:29;10.40;;;5.00;;
71558;SDS011;59382;43.852;25.952;2023-12-20T05:10:54;8.80;;;4.97;;
71558;SDS011;59382;43.852;25.952;2023-12-20T05:13:20;6.88;;;5.50;;
71558;SDS011;59382;43.852;25.952;2023-12-20T05:15:46;7.32;;;4.50;;
71558;SDS011;59382;43.852;25.952;2023-12-20T05:18:12;4.60;;;3.58;;
71558;SDS011;59382;43.852;25.952;2023-12-20T05:20:38;5.18;;;3.75;;
71558;SDS011;59382;43.852;25.952;2023-12-20T05:23:04;5.22;;;3.10;;
71558;SDS011;59382;43.852;25.952;2023-12-20T05:25:29;4.63;;;2.97;;
71558;SDS011;59382;43.852;25.952;2023-12-20T05:27:55;5.10;;;3.47;;
71558;SDS011;59382;43.852;25.952;2023-12-20T05:30:21;5.93;;;3.53;;
71558;SDS011;59382;43.852;25.952;2023-12-20T05:32:47;5.28;;;3.90;;
71558;SDS011;59382;43.852;25.952;2023-12-20T05:35:12;4.40;;;3.47;;
71558;SDS011;59382;43.852;25.952;2023-12-20T05:37:38;4.07;;;3.00;;
71558;SDS011;59382;43.852;25.952;2023-12-20T05:40:03;4.05;;;3.40;;
71558;SDS011;59382;43.852;25.952;2023-12-20T05:42:29;8.60;;;4.32;;
71558;SDS011;59382;43.852;25.952;2023-12-20T05:44:55;5.18;;;3.20;;
71558;SDS011;59382;43.852;25.952;2023-12-20T05:47:20;6.35;;;3.50;;
71558;SDS011;59382;43.852;25.952;2023-12-20T05:49:46;8.85;;;3.78;;
71558;SDS011;59382;43.852;25.952;2023-12-20T05:52:11;4.38;;;3.63;;
71558;SDS011;59382;43.852;25.952;2023-12-20T05:54:37;7.57;;;4.47;;
71558;SDS011;59382;43.852;25.952;2023-12-20T05:57:02;4.90;;;3.15;;
71558;SDS011;59382;43.852;25.952;2023-12-20T05:59:28;3.67;;;3.25;;
71558;SDS011;59382;43.852;25.952;2023-12-20T06:01:54;4.95;;;3.47;;
71558;SDS011;59382;43.852;25.952;2023-12-20T06:04:19;5.32;;;3.30;;
71558;SDS011;59382;43.852;25.952;2023-12-20T06:06:45;5.38;;;4.15;;
71558;SDS011;59382;43.852;25.952;2023-12-20T06:09:10;5.25;;;3.72;;
71558;SDS011;59382;43.852;25.952;2023-12-20T06:11:36;5.95;;;4.15;;
71558;SDS011;59382;43.852;25.952;2023-12-20T06:14:03;8.35;;;5.10;;
71558;SDS011;59382;43.852;25.952;2023-12-20T06:16:28;6.80;;;4.70;;
71558;SDS011;59382;43.852;25.952;2023-12-20T06:18:53;11.25;;;5.90;;
71558;SDS011;59382;43.852;25.952;2023-12-20T06:21:19;5.90;;;5.05;;
71558;SDS011;59382;43.852;25.952;2023-12-20T06:23:45;9.77;;;5.75;;
71558;SDS011;59382;43.852;25.952;2023-12-20T06:26:10;8.23;;;5.32;;
71558;SDS011;59382;43.852;25.952;2023-12-20T06:28:36;14.15;;;6.10;;
71558;SDS011;59382;43.852;25.952;2023-12-20T06:31:01;17.55;;;8.00;;
71558;SDS011;59382;43.852;25.952;2023-12-20T06:33:28;21.52;;;9.75;;
71558;SDS011;59382;43.852;25.952;2023-12-20T06:35:54;22.45;;;12.43;;
71558;SDS011;59382;43.852;25.952;2023-12-20T06:38:20;31.20;;;16.63;;
71558;SDS011;59382;43.852;25.952;2023-12-20T06:40:45;38.13;;;19.27;;
71558;SDS011;59382;43.852;25.952;2023-12-20T06:43:12;33.63;;;18.50;;
71558;SDS011;59382;43.852;25.952;2023-12-20T06:45:38;32.13;;;17.95;;
71558;SDS011;59382;43.852;25.952;2023-12-20T06:48:04;27.70;;;14.23;;
71558;SDS011;59382;43.852;25.952;2023-12-20T06:50:30;23.27;;;12.98;;
71558;SDS011;59382;43.852;25.952;2023-12-20T06:52:57;20.95;;;12.25;;
71558;SDS011;59382;43.852;25.952;2023-12-20T06:55:22;18.67;;;10.27;;
71558;SDS011;59382;43.852;25.952;2023-12-20T06:57:48;21.80;;;10.45;;
71558;SDS011;59382;43.852;25.952;2023-12-20T07:00:14;12.85;;;8.82;;
71558;SDS011;59382;43.852;25.952;2023-12-20T07:02:40;18.50;;;9.15;;
71558;SDS011;59382;43.852;25.952;2023-12-20T07:05:05;18.13;;;8.27;;
71558;SDS011;59382;43.852;25.952;2023-12-20T07:07:31;21.65;;;9.48;;
71558;SDS011;59382;43.852;25.952;2023-12-20T07:09:56;20.25;;;10.38;;
71558;SDS011;59382;43.852;25.952;2023-12-20T07:12:22;12.25;;;7.80;;
71558;SDS011;59382;43.852;25.952;2023-12-20T07:14:48;23.48;;;8.95;;
71558;SDS011;59382;43.852;25.952;2023-12-20T07:17:13;11.00;;;7.85;;
71558;SDS011;59382;43.852;25.952;2023-12-20T07:19:40;16.90;;;8.55;;
71558;SDS011;59382;43.852;25.952;2023-12-20T07:22:06;23.85;;;9.00;;
71558;SDS011;59382;43.852;25.952;2023-12-20T07:24:32;11.77;;;8.40;;
71558;SDS011;59382;43.852;25.952;2023-12-20T07:26:59;19.08;;;10.85;;
71558;SDS011;59382;43.852;25.952;2023-12-20T07:29:25;29.45;;;16.67;;
71558;SDS011;59382;43.852;25.952;2023-12-20T07:31:50;40.97;;;22.45;;
71558;SDS011;59382;43.852;25.952;2023-12-20T07:34:17;44.22;;;23.33;;
71558;SDS011;59382;43.852;25.952;2023-12-20T07:36:43;44.47;;;22.95;;
71558;SDS011;59382;43.852;25.952;2023-12-20T07:39:08;44.17;;;23.27;;
71558;SDS011;59382;43.852;25.952;2023-12-20T07:41:34;41.95;;;18.83;;
71558;SDS011;59382;43.852;25.952;2023-12-20T07:43:59;23.85;;;12.75;;
71558;SDS011;59382;43.852;25.952;2023-12-20T07:46:25;21.10;;;10.10;;
71558;SDS011;59382;43.852;25.952;2023-12-20T07:48:50;17.73;;;10.02;;
71558;SDS011;59382;43.852;25.952;2023-12-20T07:51:16;28.17;;;10.00;;
71558;SDS011;59382;43.852;25.952;2023-12-20T07:53:42;15.85;;;7.97;;
71558;SDS011;59382;43.852;25.952;2023-12-20T07:56:17;27.02;;;10.20;;
71558;SDS011;59382;43.852;25.952;2023-12-20T07:58:44;20.10;;;9.63;;
71558;SDS011;59382;43.852;25.952;2023-12-20T08:01:10;14.13;;;9.32;;
71558;SDS011;59382;43.852;25.952;2023-12-20T08:03:36;18.85;;;9.13;;
71558;SDS011;59382;43.852;25.952;2023-12-20T08:06:02;35.85;;;10.45;;
71558;SDS011;59382;43.852;25.952;2023-12-20T08:08:28;13.98;;;8.80;;
71558;SDS011;59382;43.852;25.952;2023-12-20T08:10:54;12.88;;;6.57;;
71558;SDS011;59382;43.852;25.952;2023-12-20T08:13:19;10.65;;;5.35;;
71558;SDS011;59382;43.852;25.952;2023-12-20T08:15:45;12.57;;;4.55;;
71558;SDS011;59382;43.852;25.952;2023-12-20T08:18:10;14.00;;;4.75;;
71558;SDS011;59382;43.852;25.952;2023-12-20T08:20:36;10.32;;;5.60;;
71558;SDS011;59382;43.852;25.952;2023-12-20T08:23:01;8.50;;;5.15;;
71558;SDS011;59382;43.852;25.952;2023-12-20T08:25:27;9.38;;;4.88;;
71558;SDS011;59382;43.852;25.952;2023-12-20T08:27:53;11.98;;;4.88;;
71558;SDS011;59382;43.852;25.952;2023-12-20T08:30:18;9.10;;;4.97;;
71558;SDS011;59382;43.852;25.952;2023-12-20T08:32:47;9.80;;;7.25;;
71558;SDS011;59382;43.852;25.952;2023-12-20T08:35:13;7.32;;;5.32;;
71558;SDS011;59382;43.852;25.952;2023-12-20T08:37:39;13.02;;;5.25;;
71558;SDS011;59382;43.852;25.952;2023-12-20T08:40:04;11.75;;;4.70;;
71558;SDS011;59382;43.852;25.952;2023-12-20T08:42:31;12.75;;;5.28;;
71558;SDS011;59382;43.852;25.952;2023-12-20T08:44:59;13.25;;;4.93;;
71558;SDS011;59382;43.852;25.952;2023-12-20T08:47:25;8.30;;;3.95;;
71558;SDS011;59382;43.852;25.952;2023-12-20T08:49:50;10.70;;;5.93;;
71558;SDS011;59382;43.852;25.952;2023-12-20T08:52:16;15.93;;;4.78;;
71558;SDS011;59382;43.852;25.952;2023-12-20T08:54:41;11.88;;;5.38;;
71558;SDS011;59382;43.852;25.952;2023-12-20T08:57:07;12.40;;;5.95;;
71558;SDS011;59382;43.852;25.952;2023-12-20T08:59:33;5.60;;;3.75;;
71558;SDS011;59382;43.852;25.952;2023-12-20T09:01:58;7.35;;;3.63;;
71558;SDS011;59382;43.852;25.952;2023-12-20T09:04:24;11.38;;;5.00;;
71558;SDS011;59382;43.852;25.952;2023-12-20T09:06:50;8.82;;;4.55;;
71558;SDS011;59382;43.852;25.952;2023-12-20T09:09:15;6.18;;;4.10;;
71558;SDS011;59382;43.852;25.952;2023-12-20T09:11:43;7.82;;;4.55;;
71558;SDS011;59382;43.852;25.952;2023-12-20T09:14:11;8.23;;;4.50;;
71558;SDS011;59382;43.852;25.952;2023-12-20T09:16:36;7.65;;;4.32;;
71558;SDS011;59382;43.852;25.952;2023-12-20T09:19:02;7.72;;;4.32;;
71558;SDS011;59382;43.852;25.952;2023-12-20T09:21:27;5.68;;;3.72;;
71558;SDS011;59382;43.852;25.952;2023-12-20T09:23:53;19.45;;;4.90;;
71558;SDS011;59382;43.852;25.952;2023-12-20T09:26:18;5.55;;;4.63;;
71558;SDS011;59382;43.852;25.952;2023-12-20T09:28:44;5.75;;;4.28;;
71558;SDS011;59382;43.852;25.952;2023-12-20T09:31:10;11.43;;;4.45;;
71558;SDS011;59382;43.852;25.952;2023-12-20T09:33:36;9.48;;;4.50;;
71558;SDS011;59382;43.852;25.952;2023-12-20T09:36:01;18.65;;;5.53;;
71558;SDS011;59382;43.852;25.952;2023-12-20T09:38:27;14.80;;;5.22;;
71558;SDS011;59382;43.852;25.952;2023-12-20T09:40:52;10.57;;;4.80;;
71558;SDS011;59382;43.852;25.952;2023-12-20T09:43:20;9.55;;;5.20;;
71558;SDS011;59382;43.852;25.952;2023-12-20T09:45:52;9.30;;;5.25;;
71558;SDS011;59382;43.852;25.952;2023-12-20T09:48:19;6.15;;;4.25;;
71558;SDS011;59382;43.852;25.952;2023-12-20T09:50:45;13.15;;;6.22;;
71558;SDS011;59382;43.852;25.952;2023-12-20T09:53:11;22.02;;;8.23;;
71558;SDS011;59382;43.852;25.952;2023-12-20T09:55:41;20.77;;;9.23;;
71558;SDS011;59382;43.852;25.952;2023-12-20T09:58:07;20.48;;;10.18;;
71558;SDS011;59382;43.852;25.952;2023-12-20T10:00:36;18.02;;;9.43;;
71558;SDS011;59382;43.852;25.952;2023-12-20T10:03:02;17.55;;;8.93;;
71558;SDS011;59382;43.852;25.952;2023-12-20T10:05:31;14.93;;;7.55;;
71558;SDS011;59382;43.852;25.952;2023-12-20T10:07:58;15.90;;;7.18;;
71558;SDS011;59382;43.852;25.952;2023-12-20T10:10:25;13.45;;;5.97;;
71558;SDS011;59382;43.852;25.952;2023-12-20T10:13:07;14.23;;;6.85;;
71558;SDS011;59382;43.852;25.952;2023-12-20T10:15:34;11.93;;;8.32;;
71558;SDS011;59382;43.852;25.952;2023-12-20T10:18:03;16.33;;;8.00;;
71558;SDS011;59382;43.852;25.952;2023-12-20T10:20:30;34.95;;;5.75;;
71558;SDS011;59382;43.852;25.952;2023-12-20T10:22:56;10.35;;;5.70;;
71558;SDS011;59382;43.852;25.952;2023-12-20T10:25:23;13.13;;;7.07;;
71558;SDS011;59382;43.852;25.952;2023-12-20T10:27:49;16.92;;;7.45;;
71558;SDS011;59382;43.852;25.952;2023-12-20T10:30:33;8.63;;;6.28;;
71558;SDS011;59382;43.852;25.952;2023-12-20T10:32:59;11.15;;;6.20;;
71558;SDS011;59382;43.852;25.952;2023-12-20T10:35:24;10.00;;;6.07;;
71558;SDS011;59382;43.852;25.952;2023-12-20T10:37:51;11.18;;;5.45;;
71558;SDS011;59382;43.852;25.952;2023-12-20T10:40:21;7.38;;;5.40;;
71558;SDS011;59382;43.852;25.952;2023-12-20T10:42:47;12.98;;;6.60;;
71558;SDS011;59382;43.852;25.952;2023-12-20T10:45:12;21.95;;;8.05;;
71558;SDS011;59382;43.852;25.952;2023-12-20T10:47:38;15.32;;;6.82;;
71558;SDS011;59382;43.852;25.952;2023-12-20T10:50:05;17.00;;;7.53;;
71558;SDS011;59382;43.852;25.952;2023-12-20T10:52:33;18.17;;;7.90;;
71558;SDS011;59382;43.852;25.952;2023-12-20T10:55:01;11.38;;;7.72;;
71558;SDS011;59382;43.852;25.952;2023-12-20T10:57:26;12.20;;;6.40;;
71558;SDS011;59382;43.852;25.952;2023-12-20T10:59:53;11.73;;;6.80;;
71558;SDS011;59382;43.852;25.952;2023-12-20T11:02:20;22.05;;;8.77;;
71558;SDS011;59382;43.852;25.952;2023-12-20T11:07:32;10.98;;;6.95;;
71558;SDS011;59382;43.852;25.952;2023-12-20T11:12:48;18.00;;;8.02;;
71558;SDS011;59382;43.852;25.952;2023-12-20T11:15:24;20.52;;;8.60;;
71558;SDS011;59382;43.852;25.952;2023-12-20T11:17:56;27.52;;;10.18;;
71558;SDS011;59382;43.852;25.952;2023-12-20T11:20:24;19.83;;;8.05;;
71558;SDS011;59382;43.852;25.952;2023-12-20T11:25:25;12.23;;;7.37;;
71558;SDS011;59382;43.852;25.952;2023-12-20T11:28:07;15.07;;;8.20;;
71558;SDS011;59382;43.852;25.952;2023-12-20T11:30:56;17.70;;;8.02;;
71558;SDS011;59382;43.852;25.952;2023-12-20T11:33:29;20.23;;;8.93;;
71558;SDS011;59382;43.852;25.952;2023-12-20T11:35:56;14.60;;;8.93;;
71558;SDS011;59382;43.852;25.952;2023-12-20T11:38:24;17.67;;;8.70;;
71558;SDS011;59382;43.852;25.952;2023-12-20T11:40:50;19.70;;;7.78;;
71558;SDS011;59382;43.852;25.952;2023-12-20T11:43:32;14.68;;;7.90;;
71558;SDS011;59382;43.852;25.952;2023-12-20T11:46:07;13.57;;;8.23;;
71558;SDS011;59382;43.852;25.952;2023-12-20T11:48:35;12.50;;;6.63;;
71558;SDS011;59382;43.852;25.952;2023-12-20T11:51:08;9.65;;;6.57;;
71558;SDS011;59382;43.852;25.952;2023-12-20T11:53:35;13.52;;;6.07;;
71558;SDS011;59382;43.852;25.952;2023-12-20T11:56:02;10.68;;;5.45;;
71558;SDS011;59382;43.852;25.952;2023-12-20T11:58:28;10.48;;;4.80;;
71558;SDS011;59382;43.852;25.952;2023-12-20T12:00:55;10.02;;;4.72;;
71558;SDS011;59382;43.852;25.952;2023-12-20T12:03:20;8.00;;;4.97;;
71558;SDS011;59382;43.852;25.952;2023-12-20T12:05:47;10.20;;;5.00;;
71558;SDS011;59382;43.852;25.952;2023-12-20T12:08:13;5.63;;;4.63;;
71558;SDS011;59382;43.852;25.952;2023-12-20T12:10:39;7.63;;;4.25;;
71558;SDS011;59382;43.852;25.952;2023-12-20T12:13:04;7.70;;;5.28;;
71558;SDS011;59382;43.852;25.952;2023-12-20T12:15:30;10.25;;;5.03;;
71558;SDS011;59382;43.852;25.952;2023-12-20T12:17:56;9.90;;;5.18;;
71558;SDS011;59382;43.852;25.952;2023-12-20T12:20:22;7.32;;;4.47;;
71558;SDS011;59382;43.852;25.952;2023-12-20T12:23:02;6.90;;;3.28;;
71558;SDS011;59382;43.852;25.952;2023-12-20T12:25:29;3.53;;;2.75;;
71558;SDS011;59382;43.852;25.952;2023-12-20T12:27:56;4.88;;;2.97;;
71558;SDS011;59382;43.852;25.952;2023-12-20T12:30:23;6.22;;;2.47;;
71558;SDS011;59382;43.852;25.952;2023-12-20T12:32:50;6.85;;;2.63;;
71558;SDS011;59382;43.852;25.952;2023-12-20T12:35:17;8.10;;;2.97;;
71558;SDS011;59382;43.852;25.952;2023-12-20T12:37:43;6.40;;;3.15;;
71558;SDS011;59382;43.852;25.952;2023-12-20T12:40:13;6.28;;;3.33;;
71558;SDS011;59382;43.852;25.952;2023-12-20T12:42:39;6.35;;;3.58;;
71558;SDS011;59382;43.852;25.952;2023-12-20T12:45:06;12.88;;;3.40;;
71558;SDS011;59382;43.852;25.952;2023-12-20T12:47:32;6.88;;;3.70;;
71558;SDS011;59382;43.852;25.952;2023-12-20T12:49:58;8.45;;;2.78;;
71558;SDS011;59382;43.852;25.952;2023-12-20T12:52:24;4.53;;;3.08;;
71558;SDS011;59382;43.852;25.952;2023-12-20T12:54:50;6.90;;;3.58;;
71558;SDS011;59382;43.852;25.952;2023-12-20T12:57:15;6.10;;;3.40;;
71558;SDS011;59382;43.852;25.952;2023-12-20T12:59:42;5.18;;;3.92;;
71558;SDS011;59382;43.852;25.952;2023-12-20T13:02:10;10.05;;;4.57;;
71558;SDS011;59382;43.852;25.952;2023-12-20T13:04:36;11.45;;;4.93;;
71558;SDS011;59382;43.852;25.952;2023-12-20T13:07:02;5.68;;;4.20;;
71558;SDS011;59382;43.852;25.952;2023-12-20T13:09:28;8.70;;;3.88;;
71558;SDS011;59382;43.852;25.952;2023-12-20T13:11:53;9.60;;;4.25;;
71558;SDS011;59382;43.852;25.952;2023-12-20T13:14:19;5.93;;;3.83;;
71558;SDS011;59382;43.852;25.952;2023-12-20T13:16:45;7.95;;;4.38;;
71558;SDS011;59382;43.852;25.952;2023-12-20T13:19:11;4.68;;;3.60;;
71558;SDS011;59382;43.852;25.952;2023-12-20T13:21:36;7.47;;;4.10;;
71558;SDS011;59382;43.852;25.952;2023-12-20T13:24:02;5.45;;;3.25;;
71558;SDS011;59382;43.852;25.952;2023-12-20T13:26:28;7.25;;;2.63;;
71558;SDS011;59382;43.852;25.952;2023-12-20T13:28:54;11.05;;;3.90;;
71558;SDS011;59382;43.852;25.952;2023-12-20T13:31:20;6.43;;;2.58;;
71558;SDS011;59382;43.852;25.952;2023-12-20T13:33:45;4.45;;;2.67;;
71558;SDS011;59382;43.852;25.952;2023-12-20T13:36:11;10.10;;;2.65;;
71558;SDS011;59382;43.852;25.952;2023-12-20T13:38:37;6.90;;;3.17;;
71558;SDS011;59382;43.852;25.952;2023-12-20T13:41:03;8.18;;;2.63;;
71558;SDS011;59382;43.852;25.952;2023-12-20T13:43:30;7.95;;;4.85;;
71558;SDS011;59382;43.852;25.952;2023-12-20T13:45:58;5.53;;;3.95;;
71558;SDS011;59382;43.852;25.952;2023-12-20T13:48:24;5.80;;;3.80;;
71558;SDS011;59382;43.852;25.952;2023-12-20T13:50:49;7.88;;;4.20;;
71558;SDS011;59382;43.852;25.952;2023-12-20T13:53:15;7.63;;;4.53;;
71558;SDS011;59382;43.852;25.952;2023-12-20T13:55:41;11.63;;;4.65;;
71558;SDS011;59382;43.852;25.952;2023-12-20T13:58:06;15.85;;;4.80;;
71558;SDS011;59382;43.852;25.952;2023-12-20T14:00:32;6.45;;;4.20;;
71558;SDS011;59382;43.852;25.952;2023-12-20T14:02:57;10.60;;;5.22;;
71558;SDS011;59382;43.852;25.952;2023-12-20T14:05:23;7.75;;;4.32;;
71558;SDS011;59382;43.852;25.952;2023-12-20T14:07:49;12.48;;;4.97;;
71558;SDS011;59382;43.852;25.952;2023-12-20T14:10:15;9.52;;;4.38;;
71558;SDS011;59382;43.852;25.952;2023-12-20T14:12:40;7.28;;;4.68;;
71558;SDS011;59382;43.852;25.952;2023-12-20T14:15:06;9.82;;;5.93;;
71558;SDS011;59382;43.852;25.952;2023-12-20T14:17:39;7.50;;;5.20;;
71558;SDS011;59382;43.852;25.952;2023-12-20T14:20:06;13.05;;;6.10;;
71558;SDS011;59382;43.852;25.952;2023-12-20T14:22:33;7.93;;;4.93;;
71558;SDS011;59382;43.852;25.952;2023-12-20T14:24:59;8.48;;;5.28;;
71558;SDS011;59382;43.852;25.952;2023-12-20T14:27:25;12.05;;;5.63;;
71558;SDS011;59382;43.852;25.952;2023-12-20T14:29:53;9.98;;;5.68;;
71558;SDS011;59382;43.852;25.952;2023-12-20T14:32:19;15.68;;;5.85;;